createdAt,value
2023-01-28T00:01:13.746Z,7.90
2023-01-28T00:03:40.633Z,7.72
2023-01-28T00:06:14.661Z,6.95
2023-01-28T00:08:42.015Z,7.55
2023-01-28T00:11:10.260Z,5.10
2023-01-28T00:13:37.003Z,6.22
2023-01-28T00:16:05.636Z,5.93
2023-01-28T00:18:32.544Z,5.45
2023-01-28T00:21:06.850Z,6.10
2023-01-28T00:23:35.407Z,5.03
2023-01-28T00:26:03.698Z,5.85
2023-01-28T00:28:30.522Z,4.53
2023-01-28T00:30:57.340Z,6.30
2023-01-28T00:33:24.196Z,6.22
2023-01-28T00:36:09.274Z,5.95
2023-01-28T00:38:36.036Z,6.85
2023-01-28T00:41:10.536Z,6.10
2023-01-28T00:43:37.794Z,7.13
2023-01-28T00:46:07.457Z,7.82
2023-01-28T00:48:35.083Z,5.82
2023-01-28T00:51:02.011Z,6.35
2023-01-28T00:53:28.840Z,6.75
2023-01-28T00:55:55.707Z,6.75
2023-01-28T00:58:24.189Z,5.90
2023-01-28T01:00:51.277Z,8.07
2023-01-28T01:03:18.491Z,6.72
2023-01-28T01:05:45.262Z,6.10
2023-01-28T01:08:12.167Z,6.55
2023-01-28T01:10:39.177Z,6.75
2023-01-28T01:13:06.301Z,5.35
2023-01-28T01:15:33.203Z,8.18
2023-01-28T01:18:00.208Z,6.47
2023-01-28T01:20:28.263Z,6.65
2023-01-28T01:22:55.793Z,6.38
2023-01-28T01:25:22.575Z,5.78
2023-01-28T01:27:49.726Z,5.80
2023-01-28T01:30:16.940Z,7.15
2023-01-28T01:32:43.737Z,6.25
2023-01-28T01:35:10.819Z,6.15
2023-01-28T01:37:37.657Z,5.07
2023-01-28T01:40:05.127Z,6.35
2023-01-28T01:42:34.973Z,6.15
2023-01-28T01:45:19.699Z,7.13
2023-01-28T01:48:15.825Z,6.00
2023-01-28T01:50:59.183Z,6.07
2023-01-28T01:53:25.951Z,5.20
2023-01-28T01:55:53.721Z,5.45
2023-01-28T01:58:22.679Z,6.05
2023-01-28T02:00:49.438Z,5.80
2023-01-28T02:03:16.371Z,5.55
2023-01-28T02:05:43.141Z,6.85
2023-01-28T02:08:21.874Z,7.80
2023-01-28T02:11:14.923Z,6.85
2023-01-28T02:13:44.482Z,7.45
2023-01-28T02:16:11.391Z,6.63
2023-01-28T02:18:38.234Z,7.15
2023-01-28T02:21:26.159Z,5.85
2023-01-28T02:24:01.632Z,6.97
2023-01-28T02:27:05.979Z,9.68
2023-01-28T02:29:38.087Z,5.63
2023-01-28T02:32:37.069Z,6.05
2023-01-28T02:35:19.167Z,6.53
2023-01-28T02:38:09.022Z,6.30
2023-01-28T02:40:57.911Z,7.10
2023-01-28T02:43:41.450Z,7.05
2023-01-28T02:46:31.280Z,6.25
2023-01-28T02:48:58.092Z,7.30
2023-01-28T02:51:48.642Z,8.60
2023-01-28T02:54:19.243Z,9.50
2023-01-28T02:56:57.448Z,6.40
2023-01-28T02:59:30.809Z,5.65
2023-01-28T03:02:20.500Z,6.80
2023-01-28T03:05:00.877Z,5.65
2023-01-28T03:07:29.326Z,5.75
2023-01-28T03:09:58.862Z,6.35
2023-01-28T03:12:45.474Z,6.30
2023-01-28T03:15:42.200Z,7.10
2023-01-28T03:18:30.838Z,7.25
2023-01-28T03:21:29.251Z,6.95
2023-01-28T03:24:28.301Z,6.22
2023-01-28T03:27:23.140Z,6.35
2023-01-28T03:30:08.831Z,9.60
2023-01-28T03:32:53.935Z,7.32
2023-01-28T03:35:40.563Z,5.47
2023-01-28T03:38:18.160Z,7.22
2023-01-28T03:40:58.489Z,5.53
2023-01-28T03:43:25.240Z,5.75
2023-01-28T03:45:52.599Z,5.70
2023-01-28T03:48:19.967Z,6.78
2023-01-28T03:50:48.160Z,5.40
2023-01-28T03:53:16.843Z,5.25
2023-01-28T03:55:44.114Z,4.45
2023-01-28T03:58:11.032Z,6.30
2023-01-28T04:00:42.189Z,5.40
2023-01-28T04:03:18.889Z,4.78
2023-01-28T04:05:46.466Z,5.90
2023-01-28T04:08:13.392Z,4.47
2023-01-28T04:10:40.436Z,6.00
2023-01-28T04:13:07.236Z,5.32
2023-01-28T04:15:34.065Z,4.55
2023-01-28T04:18:00.941Z,5.55
2023-01-28T04:20:27.825Z,5.20
2023-01-28T04:22:54.586Z,6.63
2023-01-28T04:25:21.364Z,7.00
2023-01-28T04:27:48.100Z,5.13
2023-01-28T04:30:14.993Z,5.65
2023-01-28T04:32:41.926Z,7.47
2023-01-28T04:35:09.134Z,4.47
2023-01-28T04:37:35.800Z,5.05
2023-01-28T04:40:02.557Z,4.13
2023-01-28T04:42:29.255Z,5.05
2023-01-28T04:44:55.970Z,6.80
2023-01-28T04:47:22.760Z,6.30
2023-01-28T04:49:49.544Z,4.97
2023-01-28T04:52:16.253Z,4.28
2023-01-28T04:54:43.065Z,5.57
2023-01-28T04:57:09.844Z,6.10
2023-01-28T04:59:36.577Z,6.38
2023-01-28T05:02:03.396Z,5.63
2023-01-28T05:04:30.147Z,6.53
2023-01-28T05:06:56.876Z,6.75
2023-01-28T05:09:23.657Z,5.35
2023-01-28T05:11:50.454Z,5.60
2023-01-28T05:14:17.204Z,6.32
2023-01-28T05:16:43.965Z,5.20
2023-01-28T05:19:10.760Z,7.00
2023-01-28T05:21:37.456Z,5.65
2023-01-28T05:24:04.505Z,5.47
2023-01-28T05:26:31.530Z,5.63
2023-01-28T05:28:58.319Z,5.30
2023-01-28T05:31:25.141Z,4.70
2023-01-28T05:33:53.082Z,6.32
2023-01-28T05:36:20.032Z,5.57
2023-01-28T05:38:46.825Z,4.15
2023-01-28T05:41:13.550Z,5.45
2023-01-28T05:43:40.325Z,4.43
2023-01-28T05:46:07.123Z,5.70
2023-01-28T05:48:33.938Z,6.68
2023-01-28T05:51:00.675Z,4.57
2023-01-28T05:53:27.440Z,5.47
2023-01-28T05:55:54.241Z,4.72
2023-01-28T05:58:21.302Z,4.78
2023-01-28T06:00:48.085Z,5.10
2023-01-28T06:03:14.858Z,6.45
2023-01-28T06:05:41.686Z,6.45
2023-01-28T06:08:08.799Z,4.68
2023-01-28T06:10:35.576Z,4.85
2023-01-28T06:13:02.339Z,5.55
2023-01-28T06:15:29.298Z,4.47
2023-01-28T06:17:56.032Z,7.47
2023-01-28T06:20:22.912Z,5.65
2023-01-28T06:22:52.858Z,6.10
2023-01-28T06:25:19.579Z,6.40
2023-01-28T06:27:46.463Z,6.78
2023-01-28T06:30:13.668Z,7.30
2023-01-28T06:32:40.839Z,5.28
2023-01-28T06:35:08.759Z,6.53
2023-01-28T06:37:35.529Z,6.70
2023-01-28T06:40:03.379Z,4.60
2023-01-28T06:42:30.082Z,6.57
2023-01-28T06:44:56.820Z,4.90
2023-01-28T06:47:23.573Z,7.43
2023-01-28T06:49:50.272Z,7.55
2023-01-28T06:52:16.974Z,6.55
2023-01-28T06:54:43.820Z,4.72
2023-01-28T06:57:10.568Z,4.90
2023-01-28T06:59:37.341Z,6.45
2023-01-28T07:02:04.147Z,5.13
2023-01-28T07:04:31.748Z,6.20
2023-01-28T07:06:58.575Z,5.00
2023-01-28T07:09:25.537Z,5.53
2023-01-28T07:11:52.390Z,5.65
2023-01-28T07:14:19.131Z,6.45
2023-01-28T07:16:45.899Z,5.60
2023-01-28T07:19:12.675Z,6.03
2023-01-28T07:21:39.484Z,5.22
2023-01-28T07:24:06.538Z,5.95
2023-01-28T07:26:33.347Z,5.30
2023-01-28T07:29:00.380Z,5.60
2023-01-28T07:31:27.140Z,4.78
2023-01-28T07:33:53.944Z,7.28
2023-01-28T07:36:20.791Z,6.38
2023-01-28T07:38:47.530Z,6.88
2023-01-28T07:41:14.426Z,6.10
2023-01-28T07:43:41.229Z,6.43
2023-01-28T07:46:07.957Z,7.28
2023-01-28T07:48:35.864Z,7.55
2023-01-28T07:51:02.701Z,6.55
2023-01-28T07:53:30.671Z,5.45
2023-01-28T07:56:01.600Z,5.95
2023-01-28T07:58:28.428Z,6.43
2023-01-28T08:00:59.205Z,6.75
2023-01-28T08:03:26.451Z,7.22
2023-01-28T08:05:55.467Z,6.45
2023-01-28T08:08:26.652Z,6.22
2023-01-28T08:10:53.602Z,5.05
2023-01-28T08:13:20.439Z,7.18
2023-01-28T08:15:47.383Z,4.85
2023-01-28T08:18:14.900Z,5.47
2023-01-28T08:20:43.497Z,6.95
2023-01-28T08:23:14.214Z,10.75
2023-01-28T08:25:41.050Z,8.68
2023-01-28T08:28:07.897Z,6.20
2023-01-28T08:30:35.437Z,8.85
2023-01-28T08:33:02.291Z,8.00
2023-01-28T08:35:29.250Z,6.53
2023-01-28T08:37:56.167Z,8.73
2023-01-28T08:40:22.959Z,6.15
2023-01-28T08:42:50.337Z,6.88
2023-01-28T08:45:17.323Z,7.10
2023-01-28T08:47:55.011Z,10.05
2023-01-28T08:50:22.506Z,8.75
2023-01-28T08:52:50.934Z,9.68
2023-01-28T08:55:19.206Z,7.15
2023-01-28T08:57:45.959Z,7.00
2023-01-28T09:00:13.555Z,9.63
2023-01-28T09:02:40.503Z,7.50
2023-01-28T09:05:08.360Z,11.82
2023-01-28T09:07:35.485Z,7.57
2023-01-28T09:10:02.452Z,11.00
2023-01-28T09:12:29.199Z,9.48
2023-01-28T09:14:56.024Z,8.50
2023-01-28T09:17:22.810Z,10.02
2023-01-28T09:19:50.103Z,8.05
2023-01-28T09:22:17.084Z,7.30
2023-01-28T09:24:43.926Z,7.80
2023-01-28T09:27:10.719Z,8.10
2023-01-28T09:29:38.716Z,8.82
2023-01-28T09:32:07.170Z,6.80
2023-01-28T09:34:34.199Z,7.13
2023-01-28T09:37:01.071Z,8.00
2023-01-28T09:39:28.590Z,7.18
2023-01-28T09:42:17.932Z,7.00
2023-01-28T09:45:06.772Z,8.10
2023-01-28T09:47:48.688Z,12.30
2023-01-28T09:50:23.526Z,9.98
2023-01-28T09:52:50.272Z,8.00
2023-01-28T09:55:33.410Z,7.45
2023-01-28T09:58:00.241Z,6.60
2023-01-28T10:00:31.758Z,7.22
2023-01-28T10:03:08.767Z,6.20
2023-01-28T10:06:06.407Z,7.43
2023-01-28T10:09:10.965Z,8.05
2023-01-28T10:12:06.123Z,8.88
2023-01-28T10:14:51.173Z,7.03
2023-01-28T10:18:03.896Z,7.68
2023-01-28T10:21:00.674Z,9.65
2023-01-28T10:23:38.102Z,7.53
2023-01-28T10:26:05.804Z,8.40
2023-01-28T10:28:34.794Z,7.43
2023-01-28T10:31:01.604Z,7.57
2023-01-28T10:33:28.376Z,7.85
2023-01-28T10:35:58.035Z,6.25
2023-01-28T10:38:25.726Z,7.15
2023-01-28T10:40:52.493Z,8.07
2023-01-28T10:43:26.035Z,7.07
2023-01-28T10:46:13.231Z,5.65
2023-01-28T10:48:44.686Z,7.00
2023-01-28T10:51:11.460Z,7.00
2023-01-28T10:53:38.953Z,5.45
2023-01-28T10:56:17.680Z,5.43
2023-01-28T10:58:58.954Z,6.75
2023-01-28T11:01:25.929Z,5.60
2023-01-28T11:03:56.425Z,5.72
2023-01-28T11:06:28.284Z,7.97
2023-01-28T11:08:55.158Z,6.15
2023-01-28T11:11:26.751Z,6.93
2023-01-28T11:13:58.589Z,6.90
2023-01-28T11:16:25.562Z,7.07
2023-01-28T11:19:01.049Z,7.85
2023-01-28T11:21:29.426Z,7.18
2023-01-28T11:24:13.934Z,7.35
2023-01-28T11:26:44.453Z,5.57
2023-01-28T11:29:33.228Z,5.55
2023-01-28T11:32:00.278Z,6.13
2023-01-28T11:34:29.132Z,7.25
2023-01-28T11:37:05.949Z,5.60
2023-01-28T11:39:33.014Z,5.55
2023-01-28T11:42:19.471Z,5.03
2023-01-28T11:44:49.623Z,5.30
2023-01-28T11:47:34.494Z,4.38
2023-01-28T11:50:22.970Z,7.00
2023-01-28T11:53:07.743Z,6.80
2023-01-28T11:55:47.032Z,7.20
2023-01-28T11:58:25.243Z,5.90
2023-01-28T12:01:10.068Z,5.20
2023-01-28T12:03:40.708Z,5.00
2023-01-28T12:06:27.010Z,5.20
2023-01-28T12:09:08.776Z,4.53
2023-01-28T12:12:12.038Z,6.72
2023-01-28T12:15:00.426Z,5.43
2023-01-28T12:17:42.423Z,6.43
2023-01-28T12:20:12.032Z,4.82
2023-01-28T12:22:42.984Z,5.18
2023-01-28T12:25:34.861Z,5.40
2023-01-28T12:28:30.858Z,5.00
2023-01-28T12:31:26.204Z,4.13
2023-01-28T12:34:29.885Z,5.22
2023-01-28T12:37:15.557Z,5.13
2023-01-28T12:39:54.278Z,5.93
2023-01-28T12:42:41.080Z,5.05
2023-01-28T12:45:46.231Z,5.03
2023-01-28T12:48:32.951Z,5.15
2023-01-28T12:51:14.892Z,5.07
2023-01-28T12:53:55.916Z,5.45
2023-01-28T12:56:30.227Z,6.05
2023-01-28T12:59:14.909Z,5.30
2023-01-28T13:01:54.769Z,6.22
2023-01-28T13:04:42.511Z,6.22
2023-01-28T13:07:47.334Z,5.10
2023-01-28T13:10:29.793Z,9.35
2023-01-28T13:12:56.709Z,5.88
2023-01-28T13:15:23.524Z,5.18
2023-01-28T13:18:04.768Z,4.95
2023-01-28T13:20:37.224Z,4.40
2023-01-28T13:23:06.717Z,4.75
2023-01-28T13:25:34.665Z,5.70
2023-01-28T13:28:03.460Z,4.70
2023-01-28T13:30:47.740Z,5.45
2023-01-28T13:33:30.419Z,4.93
2023-01-28T13:35:57.297Z,5.32
2023-01-28T13:38:24.740Z,5.82
2023-01-28T13:41:00.893Z,5.30
2023-01-28T13:43:39.928Z,7.25
2023-01-28T13:46:26.245Z,6.20
2023-01-28T13:48:54.755Z,5.57
2023-01-28T13:51:35.580Z,5.07
2023-01-28T13:54:06.636Z,5.65
2023-01-28T13:56:55.570Z,5.10
2023-01-28T13:59:34.616Z,5.95
2023-01-28T14:02:20.869Z,5.70
2023-01-28T14:05:10.066Z,5.57
2023-01-28T14:08:13.546Z,7.55
2023-01-28T14:10:46.549Z,6.20
2023-01-28T14:13:16.223Z,5.25
2023-01-28T14:15:43.833Z,6.22
2023-01-28T14:18:31.947Z,5.70
2023-01-28T14:21:01.563Z,5.40
2023-01-28T14:23:31.199Z,4.93
2023-01-28T14:26:16.354Z,4.65
2023-01-28T14:29:21.370Z,5.38
2023-01-28T14:31:48.423Z,5.65
2023-01-28T14:34:28.225Z,4.50
2023-01-28T14:36:56.872Z,4.57
2023-01-28T14:39:28.129Z,4.72
2023-01-28T14:41:56.527Z,6.53
2023-01-28T14:44:28.312Z,4.63
2023-01-28T14:47:01.241Z,7.80
2023-01-28T14:49:35.134Z,5.80
2023-01-28T14:52:06.164Z,4.85
2023-01-28T14:54:53.469Z,6.43
2023-01-28T14:57:34.974Z,5.38
2023-01-28T15:00:02.159Z,7.28
2023-01-28T15:02:30.405Z,5.15
2023-01-28T15:05:08.563Z,4.68
2023-01-28T15:07:35.402Z,5.25
2023-01-28T15:10:07.443Z,4.82
2023-01-28T15:12:38.777Z,5.10
2023-01-28T15:15:49.784Z,5.32
2023-01-28T15:18:18.936Z,4.50
2023-01-28T15:20:50.397Z,4.53
2023-01-28T15:23:18.136Z,5.20
2023-01-28T15:25:45.194Z,5.68
2023-01-28T15:28:30.724Z,5.03
2023-01-28T15:30:58.007Z,4.68
2023-01-28T15:33:25.344Z,4.60
2023-01-28T15:35:53.477Z,4.03
2023-01-28T15:38:20.723Z,4.40
2023-01-28T15:40:58.932Z,4.78
2023-01-28T15:43:31.402Z,5.57
2023-01-28T15:45:58.464Z,4.60
2023-01-28T15:48:29.636Z,6.53
2023-01-28T15:51:06.813Z,5.55
2023-01-28T15:53:56.690Z,6.78
2023-01-28T15:56:28.198Z,5.05
2023-01-28T15:58:56.192Z,4.93
2023-01-28T16:01:23.129Z,4.75
2023-01-28T16:04:23.159Z,5.60
2023-01-28T16:06:49.900Z,4.72
2023-01-28T16:09:30.630Z,4.45
2023-01-28T16:12:04.224Z,6.70
2023-01-28T16:14:44.488Z,4.95
2023-01-28T16:17:13.657Z,5.70
2023-01-28T16:19:41.423Z,4.10
2023-01-28T16:22:08.418Z,5.13
2023-01-28T16:24:38.219Z,4.15
2023-01-28T16:27:24.718Z,4.78
2023-01-28T16:29:51.557Z,5.65
2023-01-28T16:32:33.635Z,4.80
2023-01-28T16:35:00.861Z,4.72
2023-01-28T16:40:01.486Z,4.32
2023-01-28T16:42:29.544Z,4.32
2023-01-28T16:44:56.297Z,3.83
2023-01-28T16:47:23.084Z,4.90
2023-01-28T16:49:49.812Z,4.70
2023-01-28T16:52:18.413Z,4.28
2023-01-28T16:54:45.653Z,4.55
2023-01-28T16:57:16.490Z,4.22
2023-01-28T16:59:43.229Z,5.05
2023-01-28T17:02:12.312Z,4.03
2023-01-28T17:04:39.057Z,4.45
2023-01-28T17:07:05.789Z,4.88
2023-01-28T17:09:32.589Z,4.50
2023-01-28T17:11:59.400Z,4.95
2023-01-28T17:14:26.287Z,4.40
2023-01-28T17:16:53.055Z,4.10
2023-01-28T17:19:20.009Z,5.82
2023-01-28T17:21:46.774Z,4.45
2023-01-28T17:24:13.574Z,4.45
2023-01-28T17:26:40.305Z,5.18
2023-01-28T17:29:07.392Z,5.60
2023-01-28T17:31:34.900Z,5.10
2023-01-28T17:34:02.431Z,3.85
2023-01-28T17:36:29.214Z,4.95
2023-01-28T17:38:56.066Z,6.95
2023-01-28T17:41:22.837Z,6.82
2023-01-28T17:43:53.765Z,6.68
2023-01-28T17:46:20.762Z,6.70
2023-01-28T17:48:47.625Z,5.90
2023-01-28T17:51:16.807Z,6.85
2023-01-28T17:53:47.781Z,6.32
2023-01-28T17:56:18.875Z,7.63
2023-01-28T17:58:50.041Z,6.57
2023-01-28T18:01:16.883Z,6.50
2023-01-28T18:03:43.692Z,6.68
2023-01-28T18:06:10.433Z,5.35
2023-01-28T18:08:37.198Z,8.25
2023-01-28T18:11:07.428Z,6.32
2023-01-28T18:13:36.677Z,6.53
2023-01-28T18:16:04.259Z,5.97
2023-01-28T18:18:31.128Z,7.65
2023-01-28T18:21:02.551Z,5.55
2023-01-28T18:23:29.884Z,5.78
2023-01-28T18:26:01.197Z,5.63
2023-01-28T18:28:28.131Z,7.35
2023-01-28T18:30:55.062Z,7.65
2023-01-28T18:33:22.674Z,7.85
2023-01-28T18:35:49.497Z,5.90
2023-01-28T18:38:18.250Z,6.32
2023-01-28T18:40:45.842Z,9.05
2023-01-28T18:43:13.063Z,7.57
2023-01-28T18:45:45.658Z,6.72
2023-01-28T18:48:12.509Z,7.95
2023-01-28T18:50:39.231Z,7.38
2023-01-28T18:53:05.934Z,7.15
2023-01-28T18:55:32.810Z,6.82
2023-01-28T18:57:59.657Z,7.53
2023-01-28T19:00:26.540Z,6.15
2023-01-28T19:02:53.335Z,7.10
2023-01-28T19:05:20.115Z,9.13
2023-01-28T19:07:46.905Z,7.18
2023-01-28T19:10:13.633Z,8.50
2023-01-28T19:12:40.342Z,6.68
2023-01-28T19:15:09.809Z,7.90
2023-01-28T19:17:36.612Z,6.78
2023-01-28T19:20:03.692Z,7.93
2023-01-28T19:22:30.642Z,5.53
2023-01-28T19:24:57.423Z,9.18
2023-01-28T19:27:24.278Z,8.68
2023-01-28T19:29:51.007Z,6.25
2023-01-28T19:32:17.840Z,7.85
2023-01-28T19:34:44.561Z,7.30
2023-01-28T19:37:11.799Z,10.60
2023-01-28T19:39:38.576Z,7.30
2023-01-28T19:42:05.269Z,6.88
2023-01-28T19:44:32.830Z,7.80
2023-01-28T19:47:01.210Z,7.97
2023-01-28T19:49:29.040Z,6.28
2023-01-28T19:51:56.062Z,7.30
2023-01-28T19:54:22.929Z,7.60
2023-01-28T19:56:49.790Z,7.72
2023-01-28T19:59:16.942Z,7.45
2023-01-28T20:01:43.844Z,8.63
2023-01-28T20:04:10.615Z,7.68
2023-01-28T20:06:37.450Z,9.15
2023-01-28T20:09:07.699Z,8.00
2023-01-28T20:11:34.641Z,10.23
2023-01-28T20:14:01.564Z,8.75
2023-01-28T20:16:29.869Z,8.65
2023-01-28T20:18:57.456Z,8.00
2023-01-28T20:21:24.342Z,8.73
2023-01-28T20:23:52.331Z,7.20
2023-01-28T20:26:23.226Z,7.97
2023-01-28T20:28:50.419Z,7.38
2023-01-28T20:31:17.625Z,7.65
2023-01-28T20:33:44.540Z,10.05
2023-01-28T20:36:12.487Z,7.25
2023-01-28T20:38:44.205Z,8.20
2023-01-28T20:41:13.305Z,8.13
2023-01-28T20:43:41.059Z,8.35
2023-01-28T20:46:12.369Z,9.52
2023-01-28T20:48:39.130Z,8.80
2023-01-28T20:51:16.717Z,8.50
2023-01-28T20:53:44.703Z,8.63
2023-01-28T20:56:17.088Z,8.45
2023-01-28T20:58:44.157Z,7.95
2023-01-28T21:01:18.252Z,7.65
2023-01-28T21:03:44.999Z,6.35
2023-01-28T21:06:11.882Z,8.35
2023-01-28T21:08:38.831Z,9.15
2023-01-28T21:11:06.396Z,8.57
2023-01-28T21:13:33.416Z,9.32
2023-01-28T21:16:00.263Z,7.25
2023-01-28T21:18:27.079Z,8.77
2023-01-28T21:20:54.984Z,9.43
2023-01-28T21:23:25.178Z,10.82
2023-01-28T21:25:52.471Z,8.80
2023-01-28T21:28:19.898Z,9.30
2023-01-28T21:30:46.998Z,8.05
2023-01-28T21:33:13.802Z,7.97
2023-01-28T21:35:42.163Z,8.35
2023-01-28T21:38:08.984Z,8.77
2023-01-28T21:40:35.922Z,8.13
2023-01-28T21:43:02.731Z,11.60
2023-01-28T21:45:29.666Z,10.00
2023-01-28T21:47:56.608Z,8.68
2023-01-28T21:50:23.665Z,11.10
2023-01-28T21:52:50.923Z,8.98
2023-01-28T21:55:18.229Z,7.30
2023-01-28T21:57:45.137Z,9.02
2023-01-28T22:00:13.182Z,9.02
2023-01-28T22:02:40.249Z,8.65
2023-01-28T22:05:07.272Z,10.52
2023-01-28T22:07:34.049Z,10.90
2023-01-28T22:10:00.823Z,11.25
2023-01-28T22:12:28.208Z,12.80
2023-01-28T22:14:55.128Z,14.05
2023-01-28T22:17:21.968Z,10.75
2023-01-28T22:19:48.800Z,11.38
2023-01-28T22:22:16.002Z,10.45
2023-01-28T22:24:42.798Z,10.57
2023-01-28T22:27:09.641Z,7.88
2023-01-28T22:29:36.419Z,8.18
2023-01-28T22:32:04.849Z,11.65
2023-01-28T22:34:31.747Z,7.40
2023-01-28T22:36:58.510Z,7.55
2023-01-28T22:39:25.296Z,9.15
2023-01-28T22:41:52.068Z,7.68
2023-01-28T22:44:20.140Z,8.30
2023-01-28T22:46:47.455Z,8.40
2023-01-28T22:49:15.142Z,7.28
2023-01-28T22:51:42.036Z,7.30
2023-01-28T22:54:10.732Z,6.40
2023-01-28T22:56:37.959Z,7.80
2023-01-28T22:59:04.742Z,9.15
2023-01-28T23:01:31.895Z,6.10
2023-01-28T23:03:58.807Z,6.55
2023-01-28T23:06:26.514Z,5.93
2023-01-28T23:08:54.455Z,8.63
2023-01-28T23:11:27.842Z,6.35
2023-01-28T23:14:15.642Z,6.93
2023-01-28T23:17:00.915Z,7.80
2023-01-28T23:19:46.161Z,5.53
2023-01-28T23:22:33.263Z,5.93
2023-01-28T23:25:00.044Z,7.40
2023-01-28T23:27:26.867Z,7.75
2023-01-28T23:29:53.645Z,7.25
2023-01-28T23:32:20.480Z,6.65
2023-01-28T23:34:47.210Z,5.40
2023-01-28T23:37:14.283Z,6.80
2023-01-28T23:39:41.237Z,5.80
2023-01-28T23:42:12.961Z,5.97
2023-01-28T23:44:39.821Z,5.20
2023-01-28T23:47:06.683Z,6.22
2023-01-28T23:49:33.626Z,6.55
2023-01-28T23:52:00.898Z,5.03
2023-01-28T23:54:27.672Z,5.60
2023-01-28T23:56:54.449Z,6.80
2023-01-28T23:59:21.307Z,5.38
